Latest Weather Observations for Warwick

IDQ60901

Issued at 1:41 pm EST Tuesday 30 June 2015 (issued every 10 minutes, with the page automatically refreshed every 10 minutes)

About weather observations | Map of Brisbane area stations | Latest observations for Brisbane area | Other Formats
Station Details ID: 041525 Name: WARWICK Lat: -28.21 Lon: 152.10 Height: 475.4 m
Data from the previous 72 hours. | See also: Recent months at Warwick
Date/Time
EST
Tmp

°C
App
Tmp
°C
Dew
Point
°C
Rel
Hum
%
Delta-T

°C
Wind Press
QNH
hPa
Press
MSL
hPa
Rain
since
9 am
mm
Dir
 
Spd
km/h
Gust
km/h
Spd
kts
Gust
kts
30/01:30pm 19.8 19.3 9.4 51 5.6 SSE 2 7 1 4 1024.6 1024.5 0.0
30/01:00pm 19.8 18.4 8.7 48 5.9 ESE 6 15 3 8 1024.9 1024.8 0.0
30/12:30pm 19.6 17.8 9.6 52 5.4 SE 9 15 5 8 1025.5 1025.4 0.0
30/12:00pm 19.2 17.5 9.8 54 5.1 S 9 13 5 7 1026.4 1026.3 0.0
30/11:30am 18.3 16.3 10.0 58 4.5 SSE 11 19 6 10 1027.0 1026.9 0.0
30/11:00am 18.2 16.2 8.5 53 5.1 SE 9 13 5 7 1027.3 1027.2 0.0
30/10:30am 17.9 16.1 9.5 58 4.5 ENE 9 15 5 8 1027.6 1027.5 0.0
30/10:00am 16.7 16.5 10.6 67 3.3 E 2 7 1 4 1028.0 1028.0 0.0
30/09:30am 15.6 16.1 11.6 77 2.2 CALM 0 0 0 0 1028.5 1028.4 0.0
30/09:00am 15.0 15.5 11.7 80 1.8 CALM 0 0 0 0 1028.4 1028.3 0.2
30/08:30am 13.1 13.5 11.2 88 1.0 CALM 0 0 0 0 1028.7 1028.6 0.2
30/08:00am 13.7 14.1 11.3 85 1.3 CALM 0 2 0 1 1028.4 1028.3 0.2
30/07:30am 11.5 10.5 10.2 92 0.7 NNE 6 9 3 5 1027.9 1027.9 0.2
30/07:00am 10.6 9.3 9.8 95 0.4 NNE 7 9 4 5 1027.9 1027.9 0.2
30/06:30am 11.0 11.2 10.4 96 0.3 CALM 0 0 0 0 1027.6 1027.5 0.2
30/06:00am 11.0 9.8 10.4 96 0.3 NE 7 11 4 6 1027.4 1027.3 0.2
30/05:30am 11.5 10.7 10.9 96 0.3 ENE 6 7 3 4 1027.6 1027.5 0.2
30/05:00am 11.9 12.2 11.0 94 0.5 CALM 0 0 0 0 1027.8 1027.8 0.2
30/04:30am 12.1 12.1 11.0 93 0.6 NNE 2 7 1 4 1027.7 1027.7 0.2
30/04:00am 12.0 12.4 11.3 95 0.4 CALM 0 0 0 0 1027.7 1027.7 0.2
30/03:30am 12.3 11.9 11.2 93 0.6 NE 4 7 2 4 1028.0 1028.0 0.2
30/03:00am 12.4 12.8 11.3 93 0.6 CALM 0 0 0 0 1028.4 1028.3 0.2
30/02:30am 12.6 12.6 11.3 92 0.7 SSE 2 9 1 5 1028.5 1028.4 0.2
30/02:00am 12.6 11.8 11.1 91 0.8 NE 6 9 3 5 1028.5 1028.4 0.2
30/01:30am 13.0 13.0 11.3 89 0.9 NE 2 7 1 4 1028.6 1028.5 0.2
30/01:00am 13.2 12.5 11.5 89 0.9 SSE 6 9 3 5 1028.8 1028.7 0.2
30/12:30am 13.2 11.9 11.3 88 1.0 SSE 9 13 5 7 1028.9 1028.8 0.0
30/12:00am 13.3 12.0 11.3 88 1.1 SSE 9 15 5 8 1028.9 1028.8 0.0
 
Date/Time
EST
Tmp

°C
App
Tmp
°C
Dew
Point
°C
Rel
Hum
%
Delta-T

°C
Wind Press
QNH
hPa
Press
MSL
hPa
Rain
since
9 am
mm
Dir
 
Spd
km/h
Gust
km/h
Spd
kts
Gust
kts
29/11:30pm 13.4 12.0 11.0 85 1.3 SSE 9 13 5 7 1029.1 1029.0 0.0
29/11:00pm 12.7 12.9 10.4 86 1.2 CALM 0 0 0 0 1029.4 1029.3 0.0
29/10:30pm 12.9 12.6 10.2 84 1.4 SSE 2 7 1 4 1029.5 1029.5 0.0
29/10:00pm 12.8 12.9 10.3 85 1.3 CALM 0 0 0 0 1029.5 1029.5 0.0
29/09:30pm 13.6 12.9 10.0 79 1.9 SSE 4 9 2 5 1029.6 1029.6 0.0
29/09:00pm 13.7 13.8 10.3 80 1.8 CALM 0 0 0 0 1029.8 1029.8 0.0
29/08:30pm 13.8 13.6 10.6 81 1.7 ESE 2 9 1 5 1029.7 1029.7 0.0
29/08:00pm 14.2 12.6 10.2 77 2.1 SE 9 13 5 7 1029.6 1029.6 0.0
29/07:30pm 14.1 13.3 10.9 81 1.7 SE 6 9 3 5 1029.5 1029.5 0.0
29/07:00pm 14.2 13.1 10.8 80 1.8 SE 7 11 4 6 1029.3 1029.2 0.0
29/06:30pm 14.6 13.7 10.7 77 2.1 SE 6 11 3 6 1029.1 1029.0 0.0
29/06:00pm 15.0 13.6 10.9 76 2.2 SE 9 13 5 7 1029.0 1028.9 0.0
29/05:30pm 15.3 14.5 10.9 75 2.4 SE 6 9 3 5 1028.5 1028.4 0.0
29/05:00pm 15.7 14.2 10.7 72 2.7 SE 9 17 5 9 1027.9 1027.9 0.0
29/04:30pm 16.5 14.6 10.4 67 3.3 SE 11 17 6 9 1027.8 1027.8 0.0
29/04:00pm 17.2 15.8 10.8 66 3.5 ESE 9 17 5 9 1027.9 1027.9 0.0
29/03:30pm 17.5 15.1 9.9 61 4.1 SE 13 20 7 11 1028.0 1028.0 0.0
29/03:00pm 17.4 14.8 10.6 64 3.7 SE 15 20 8 11 1028.1 1028.1 0.0
29/02:30pm 17.0 15.6 11.0 68 3.3 SE 9 15 5 8 1028.6 1028.5 0.0
29/02:00pm 16.9 15.0 10.6 66 3.4 SE 11 20 6 11 1028.7 1028.6 0.0
29/01:30pm 16.9 15.5 10.8 67 3.3 ESE 9 19 5 10 1028.8 1028.7 0.0
29/01:00pm 17.5 15.0 10.9 65 3.6 SE 15 22 8 12 1029.0 1028.9 0.0
29/12:30pm 17.3 14.4 11.1 67 3.4 SSE 17 30 9 16 1029.3 1029.2 0.0
29/12:00pm 17.4 13.9 11.0 66 3.5 SSE 20 32 11 17 1029.6 1029.6 0.0
29/11:30am 17.4 14.1 11.0 66 3.5 SSE 19 28 10 15 1030.1 1030.1 0.0
29/11:00am 17.3 14.5 11.3 68 3.3 SSE 17 28 9 15 1030.7 1030.6 0.0
29/10:30am 16.2 13.1 11.5 73 2.6 SSE 19 28 10 15 1031.3 1031.3 0.0
29/10:00am 16.0 13.7 11.6 75 2.4 SE 15 24 8 13 1031.4 1031.4 0.0
29/09:30am 15.5 13.3 12.1 80 1.9 SSE 15 26 8 14 1031.4 1031.4 0.0
29/09:00am 13.9 11.3 11.9 88 1.1 SSE 17 24 9 13 1031.6 1031.6 0.0
29/08:30am 13.7 11.8 11.9 89 1.0 SSE 13 19 7 10 1031.4 1031.4 0.0
29/08:00am 12.5 12.1 11.2 92 0.7 E 4 11 2 6 1031.2 1031.1 0.0
29/07:30am 11.0 10.0 10.2 95 0.4 ENE 6 9 3 5 1031.0 1030.9 0.0
29/07:00am 9.1 7.0 8.3 95 0.4 NE 9 9 5 5 1030.7 1030.6 0.0
29/06:30am 9.7 8.3 9.5 99 0.1 NE 7 9 4 5 1030.5 1030.5 0.0
29/06:00am 8.4 6.2 7.8 96 0.3 NE 9 11 5 6 1030.2 1030.2 0.0
29/05:30am 7.1 5.1 6.9 99 0.1 NE 7 9 4 5 1030.0 1030.0 0.0
29/05:00am 7.1 4.7 7.1 100 0.0 NNE 9 11 5 6 1029.7 1029.7 0.0
29/04:30am 8.2 6.6 8.2 100 0.0 ENE 6 9 3 5 1029.4 1029.3 0.0
29/04:00am 9.4 8.9 9.4 100 0.0 NE 2 7 1 4 1029.5 1029.5 0.0
29/03:30am 10.3 10.0 10.1 99 0.1 ENE 2 9 1 5 1029.7 1029.7 0.0
29/03:00am 10.6 9.6 10.2 97 0.2 ENE 6 9 3 5 1029.9 1029.9 0.0
29/02:30am 9.9 8.4 9.1 95 0.4 NE 7 9 4 5 1030.0 1030.0 0.0
29/02:00am 9.5 8.2 9.3 99 0.1 NE 6 7 3 4 1030.1 1030.1 0.0
29/01:30am 7.8 7.3 7.8 100 0.0 CALM 0 0 0 0 1030.2 1030.2 0.0
29/01:00am 6.1 4.8 6.1 100 0.0 S 2 7 1 4 1030.4 1030.4 0.0
29/12:30am 9.1 8.9 9.1 100 0.0 CALM 0 7 0 4 1030.4 1030.4 0.0
29/12:00am 10.5 9.4 10.1 97 0.2 NE 6 9 3 5 1030.7 1030.6 0.0
 
Date/Time
EST
Tmp

°C
App
Tmp
°C
Dew
Point
°C
Rel
Hum
%
Delta-T

°C
Wind Press
QNH
hPa
Press
MSL
hPa
Rain
since
9 am
mm
Dir
 
Spd
km/h
Gust
km/h
Spd
kts
Gust
kts
28/11:30pm 10.6 10.7 10.2 97 0.2 CALM 0 0 0 0 1030.9 1030.8 0.0
28/11:00pm 11.4 10.8 10.4 94 0.5 NE 4 7 2 4 1030.9 1030.8 0.0
28/10:30pm 9.2 9.0 9.0 99 0.1 CALM 0 0 0 0 1031.0 1030.9 0.0
28/10:00pm 10.7 10.7 9.9 95 0.4 CALM 0 0 0 0 1031.1 1031.0 0.0
28/09:30pm 9.3 9.1 8.9 97 0.2 CALM 0 0 0 0 1030.9 1030.8 0.0
28/09:00pm 11.1 11.2 10.1 94 0.5 CALM 0 0 0 0 1030.9 1030.8 0.0
28/08:30pm 11.2 11.3 10.2 94 0.5 CALM 0 0 0 0 1030.9 1030.8 0.0
28/08:00pm 12.2 12.2 11.1 93 0.6 ENE 2 7 1 4 1030.5 1030.5 0.0
28/07:30pm 12.1 12.3 10.6 90 0.8 CALM 0 0 0 0 1030.2 1030.2 0.0
28/07:00pm 12.1 12.3 10.6 90 0.8 CALM 0 0 0 0 1029.8 1029.8 0.0
28/06:30pm 13.1 13.4 10.9 86 1.2 CALM 0 0 0 0 1029.5 1029.5 0.0
28/06:00pm 15.0 15.4 11.3 78 2.0 CALM 0 0 0 0 1029.1 1029.0 0.0
28/05:30pm 16.5 15.2 11.4 72 2.8 SE 9 17 5 9 1028.6 1028.5 0.0
28/05:00pm 17.7 16.3 11.0 65 3.7 SE 9 13 5 7 1028.5 1028.4 0.0
28/04:30pm 19.0 17.6 10.8 59 4.5 SE 9 15 5 8 1028.2 1028.2 0.0
28/04:00pm 19.4 18.6 11.1 58 4.6 SE 6 9 3 5 1028.2 1028.2 0.0
28/03:30pm 20.1 18.8 11.1 56 5.0 ESE 9 15 5 8 1028.1 1028.1 0.0
28/03:00pm 20.3 19.0 11.4 56 5.0 SE 9 13 5 7 1028.0 1028.0 0.0
28/02:30pm 20.2 19.2 11.0 55 5.2 SE 7 13 4 7 1028.1 1028.1 0.0
28/02:00pm 20.2 19.5 11.3 56 5.0 S 6 11 3 6 1028.4 1028.3 0.0
28/01:30pm 18.9 18.1 11.8 63 4.0 SE 7 11 4 6 1028.9 1028.8 0.0
28/01:00pm 19.5 17.6 11.7 60 4.4 SSE 13 20 7 11 1029.1 1029.0 0.0
28/12:30pm 18.8 18.0 11.8 64 3.9 SSE 7 11 4 6 1029.5 1029.5 0.0
28/12:00pm 18.8 18.0 11.8 64 3.9 SSE 7 13 4 7 1029.9 1029.9 0.0
28/11:30am 18.4 17.6 11.8 65 3.7 S 7 13 4 7 1030.5 1030.5 0.0
28/11:00am 17.8 16.7 12.1 69 3.2 SSE 9 15 5 8 1031.0 1030.9 0.0
28/10:30am 17.8 17.3 12.1 69 3.2 SE 6 13 3 7 1031.4 1031.4 0.0
28/10:00am 16.4 16.0 12.3 77 2.3 SSE 6 13 3 7 1031.8 1031.8 0.0
28/09:30am 15.0 15.1 12.7 86 1.3 SSE 4 7 2 4 1032.0 1032.0 0.0
28/09:00am 14.0 14.3 12.2 89 1.0 ESE 2 7 1 4 1032.0 1032.0 0.0
28/08:30am 13.5 13.7 11.8 89 0.9 NE 2 7 1 4 1031.6 1031.6 0.0
28/08:00am 12.9 13.4 11.6 92 0.7 CALM 0 0 0 0 1031.3 1031.3 0.0
28/07:30am 12.6 13.0 11.3 92 0.7 CALM 0 2 0 1 1031.0 1030.9 0.0
28/07:00am 12.2 12.4 10.7 90 0.8 CALM 0 0 0 0 1030.8 1030.7 0.0
28/06:30am 12.0 11.8 10.5 90 0.8 NE 2 9 1 5 1030.3 1030.3 0.0
28/06:00am 11.8 12.0 10.5 92 0.7 CALM 0 0 0 0 1030.1 1030.1 0.0
28/05:30am 11.4 9.8 10.1 92 0.7 NNE 9 11 5 6 1030.0 1030.0 0.0
28/05:00am 10.9 10.9 9.9 93 0.5 CALM 0 0 0 0 1029.8 1029.8 0.0
28/04:30am 10.4 10.4 9.8 96 0.3 CALM 0 6 0 3 1029.6 1029.6 0.0
28/04:00am 10.5 9.1 9.5 93 0.5 NNE 7 9 4 5 1029.9 1029.9 0.0
28/03:30am 9.9 9.8 9.3 96 0.3 CALM 0 0 0 0 1029.7 1029.7 0.0
28/03:00am 9.9 8.6 9.1 95 0.4 N 6 7 3 4 1029.9 1029.9 0.0
28/02:30am 10.5 10.4 9.5 93 0.5 CALM 0 0 0 0 1030.0 1030.0 0.0
28/02:00am 10.8 10.7 9.4 91 0.7 CALM 0 0 0 0 1030.0 1030.0 0.0
28/01:30am 11.8 11.9 10.3 90 0.8 CALM 0 0 0 0 1030.3 1030.3 0.0
28/01:00am 11.5 11.6 10.0 90 0.8 CALM 0 0 0 0 1030.4 1030.4 0.0
28/12:30am 10.8 10.8 9.8 93 0.5 CALM 0 0 0 0 1030.4 1030.4 0.0
28/12:00am 11.6 11.7 10.3 92 0.7 CALM 0 0 0 0 1030.5 1030.5 0.0
 
Date/Time
EST
Tmp

°C
App
Tmp
°C
Dew
Point
°C
Rel
Hum
%
Delta-T

°C
Wind Press
QNH
hPa
Press
MSL
hPa
Rain
since
9 am
mm
Dir
 
Spd
km/h
Gust
km/h
Spd
kts
Gust
kts
27/11:30pm 11.7 11.9 10.6 93 0.6 CALM 0 0 0 0 1030.7 1030.6 0.0
27/11:00pm 10.8 10.9 10.0 95 0.4 CALM 0 0 0 0 1031.0 1030.9 0.0
27/10:30pm 10.4 10.3 9.4 93 0.5 CALM 0 0 0 0 1031.0 1030.9 0.0
27/10:00pm 10.9 10.8 9.5 91 0.7 CALM 0 0 0 0 1031.1 1031.0 0.0
27/09:30pm 11.3 11.3 9.9 91 0.7 CALM 0 0 0 0 1031.3 1031.3 0.0
27/09:00pm 12.1 12.3 10.6 90 0.8 CALM 0 0 0 0 1031.3 1031.3 0.0
27/08:30pm 12.3 12.1 10.6 89 0.9 ESE 2 7 1 4 1031.1 1031.0 0.0
27/08:00pm 12.2 12.3 10.3 88 1.0 CALM 0 6 0 3 1030.9 1030.8 0.0
27/07:30pm 13.0 13.3 10.9 87 1.1 CALM 0 6 0 3 1030.9 1030.8 0.0
27/07:00pm 13.9 12.5 10.9 82 1.6 SE 9 13 5 7 1030.7 1030.6 0.0
27/06:30pm 14.4 13.1 11.1 80 1.8 SE 9 15 5 8 1030.5 1030.5 0.0
27/06:00pm 14.5 13.1 11.0 79 1.9 SSE 9 15 5 8 1030.1 1030.1 0.0
27/05:30pm 14.7 12.2 11.0 78 2.0 SSE 15 20 8 11 1029.9 1029.9 0.0
27/05:00pm 14.9 13.1 10.8 76 2.2 SE 11 15 6 8 1029.5 1029.5 0.0
27/04:30pm 15.5 12.6 10.9 74 2.5 SSE 17 24 9 13 1029.3 1029.2 0.0
27/04:00pm 16.1 13.6 11.0 72 2.8 SE 15 22 8 12 1029.1 1029.0 0.0
27/03:30pm 16.7 13.7 10.8 68 3.2 SE 17 26 9 14 1029.0 1028.9 0.0
27/03:00pm 17.5 14.5 10.7 64 3.7 SE 17 24 9 13 1028.9 1028.8 0.0
27/02:30pm 17.0 13.7 11.0 68 3.3 SSE 19 26 10 14 1028.8 1028.7 0.0
27/02:00pm 17.5 14.0 10.9 65 3.6 SSE 20 30 11 16 1028.9 1028.8 0.0

Latest Capital City Observations: Canberra | Sydney | Melbourne | Brisbane | Adelaide | Perth | Hobart | Darwin

Other Formats:

Comma delimited format used in spreadsheet applications
http://www.bom.gov.au/fwo/IDQ60901/IDQ60901.94555.axf

JavaScript Object Notation format (JSON) in row-major order
http://www.bom.gov.au/fwo/IDQ60901/IDQ60901.94555.json